Terminal Aerodrome Forecast
Issued by NWS Louisville, KY

Home | Current Version | Previous Version | Text Only | Print | Product List | Glossary On
Versions: 1 2 3 4 5 6 7 8 9 10 11 12
955
FTUS43 KLMK 072323
TAFSDF
TAF
KSDF 072323Z 0800/0906 22008KT P6SM BKN100
     FM080500 24006KT P6SM VCSH BKN040
     FM081300 25008KT P6SM -RASN OVC025
     FM081700 27012G20KT 4SM -RASN BR OVC020=

USA.gov is the U.S. government's official web portal to all federal, state and local government web resources and services.